FIN26CE EGPH-EFHK
Flight info
| Callsign | FIN26CE |
|---|---|
| Flight time | 2h 23m |
| Altitude | 39000 |
| Route | GRICE P600 ASNUD DCT ALOTI DCT RIVEX DCT PIPEX DCT VATEX DCT IBVUT Y363 LAKUT |
| Aircraft | A20N/M-SDE2E3FGHIRWXY/LB1 |
Departure
| Time | 2026-04-25 19:52 |
|---|---|
| Airport | Edinburgh Airport (EGPH) |
Arrival
| Time | 2026-04-25 22:16 |
|---|---|
| Airport | Helsinki Vantaa Airport (EFHK) |
| Time | Latitude | Longitude | Altitude | Speed | Heading |
|---|---|---|---|---|---|
| 2026-04-25 19:15 | 55.94658 | -3.36613 | 106 ft | 0 kts | 89° |
| 2026-04-25 19:30 | 55.94658 | -3.36615 | 106 ft | 1 kts | 89° |
| 2026-04-25 19:31 | 55.94658 | -3.36629 | 106 ft | 1 kts | 89° |
| 2026-04-25 19:31 | 55.94658 | -3.36655 | 106 ft | 2 kts | 89° |
| 2026-04-25 19:31 | 55.94657 | -3.36682 | 106 ft | 2 kts | 89° |
| 2026-04-25 19:31 | 55.94655 | -3.36708 | 105 ft | 2 kts | 63° |
| 2026-04-25 19:32 | 55.94647 | -3.36730 | 105 ft | 2 kts | 28° |
| 2026-04-25 19:32 | 55.94637 | -3.36736 | 105 ft | 0 kts | 360° |
| 2026-04-25 19:36 | 55.94653 | -3.36736 | 105 ft | 0 kts | 360° |
| 2026-04-25 19:36 | 55.94658 | -3.36736 | 105 ft | 4 kts | 359° |
| 2026-04-25 19:36 | 55.94723 | -3.36736 | 107 ft | 14 kts | 360° |
| 2026-04-25 19:37 | 55.94807 | -3.36777 | 107 ft | 9 kts | 352° |
| 2026-04-25 19:37 | 55.94832 | -3.36777 | 108 ft | 3 kts | 1° |
| 2026-04-25 19:37 | 55.94896 | -3.36801 | 109 ft | 14 kts | 332° |
| 2026-04-25 19:37 | 55.94903 | -3.36964 | 108 ft | 16 kts | 239° |
| 2026-04-25 19:38 | 55.94836 | -3.37162 | 109 ft | 21 kts | 239° |
| 2026-04-25 19:38 | 55.94765 | -3.37366 | 111 ft | 19 kts | 238° |
| 2026-04-25 19:38 | 55.94691 | -3.37588 | 114 ft | 21 kts | 239° |
| 2026-04-25 19:38 | 55.94623 | -3.37790 | 113 ft | 20 kts | 239° |
| 2026-04-25 19:39 | 55.94549 | -3.38005 | 114 ft | 22 kts | 239° |
| 2026-04-25 19:39 | 55.94467 | -3.38247 | 113 ft | 11 kts | 240° |
| 2026-04-25 19:39 | 55.94429 | -3.38361 | 116 ft | 12 kts | 238° |
| 2026-04-25 19:39 | 55.94379 | -3.38504 | 116 ft | 15 kts | 239° |
| 2026-04-25 19:40 | 55.94306 | -3.38635 | 119 ft | 16 kts | 208° |
| 2026-04-25 19:40 | 55.94254 | -3.38736 | 118 ft | 0 kts | 237° |
| 2026-04-25 19:44 | 55.94253 | -3.38737 | 118 ft | 0 kts | 234° |
| 2026-04-25 19:44 | 55.94252 | -3.38739 | 119 ft | 0 kts | 234° |
| 2026-04-25 19:46 | 55.94251 | -3.38744 | 120 ft | 2 kts | 236° |
| 2026-04-25 19:47 | 55.94247 | -3.38802 | 120 ft | 7 kts | 282° |
| 2026-04-25 19:47 | 55.94258 | -3.38830 | 120 ft | 0 kts | 313° |
| 2026-04-25 19:47 | 55.94263 | -3.38838 | 121 ft | 4 kts | 317° |
| 2026-04-25 19:48 | 55.94299 | -3.38877 | 122 ft | 2 kts | 330° |
| 2026-04-25 19:48 | 55.94309 | -3.38889 | 119 ft | 3 kts | 330° |
| 2026-04-25 19:48 | 55.94317 | -3.38897 | 120 ft | 0 kts | 330° |
| 2026-04-25 19:51 | 55.94343 | -3.38924 | 122 ft | 10 kts | 329° |
| 2026-04-25 19:51 | 55.94424 | -3.38932 | 120 ft | 14 kts | 45° |
| 2026-04-25 19:51 | 55.94456 | -3.38843 | 120 ft | 0 kts | 58° |
| 2026-04-25 19:52 | 55.94513 | -3.38674 | 116 ft | 50 kts | 58° |
| 2026-04-25 19:52 | 55.94810 | -3.37804 | 117 ft | 111 kts | 58° |
| 2026-04-25 19:52 | 55.95284 | -3.36407 | 288 ft | 141 kts | 59° |
| 2026-04-25 19:52 | 55.95854 | -3.34938 | 834 ft | 145 kts | 47° |
| 2026-04-25 19:53 | 55.96610 | -3.33794 | 1598 ft | 139 kts | 44° |
| 2026-04-25 19:53 | 55.97376 | -3.32643 | 2072 ft | 152 kts | 45° |
| 2026-04-25 19:53 | 55.98217 | -3.31325 | 2431 ft | 171 kts | 45° |
| 2026-04-25 19:53 | 55.99143 | -3.29840 | 2699 ft | 193 kts | 45° |
| 2026-04-25 19:54 | 56.00273 | -3.28289 | 2993 ft | 220 kts | 23° |
| 2026-04-25 19:54 | 56.01867 | -3.28063 | 3449 ft | 244 kts | 349° |
| 2026-04-25 19:54 | 56.03565 | -3.28895 | 4110 ft | 261 kts | 340° |
| 2026-04-25 19:54 | 56.04148 | -3.29256 | 4449 ft | 262 kts | 338° |
| 2026-04-25 19:55 | 56.06465 | -3.32486 | 5652 ft | 262 kts | 297° |
| 2026-04-25 19:55 | 56.06995 | -3.35597 | 5925 ft | 264 kts | 276° |
| 2026-04-25 19:55 | 56.07227 | -3.38868 | 6062 ft | 263 kts | 278° |
| 2026-04-25 19:55 | 56.07540 | -3.42097 | 6390 ft | 265 kts | 281° |
| 2026-04-25 19:56 | 56.07937 | -3.45342 | 7208 ft | 267 kts | 283° |
| 2026-04-25 19:56 | 56.08381 | -3.48562 | 8320 ft | 268 kts | 283° |
| 2026-04-25 19:56 | 56.08854 | -3.51817 | 9310 ft | 274 kts | 283° |
| 2026-04-25 19:56 | 56.09337 | -3.55088 | 10267 ft | 279 kts | 283° |
| 2026-04-25 19:57 | 56.09844 | -3.58605 | 10912 ft | 297 kts | 283° |
| 2026-04-25 19:57 | 56.10375 | -3.62292 | 11283 ft | 321 kts | 283° |
| 2026-04-25 19:57 | 56.10953 | -3.66264 | 11819 ft | 335 kts | 283° |
| 2026-04-25 19:57 | 56.11600 | -3.70292 | 12776 ft | 337 kts | 291° |
| 2026-04-25 19:58 | 56.12869 | -3.73854 | 13641 ft | 348 kts | 311° |
| 2026-04-25 19:58 | 56.14837 | -3.76470 | 14355 ft | 359 kts | 333° |
| 2026-04-25 19:58 | 56.17250 | -3.77682 | 15158 ft | 365 kts | 353° |
| 2026-04-25 19:58 | 56.19785 | -3.77358 | 15935 ft | 372 kts | 13° |
| 2026-04-25 19:59 | 56.22168 | -3.75512 | 16670 ft | 378 kts | 33° |
| 2026-04-25 19:59 | 56.24121 | -3.72322 | 17418 ft | 383 kts | 52° |
| 2026-04-25 19:59 | 56.25425 | -3.68187 | 18147 ft | 387 kts | 68° |
| 2026-04-25 19:59 | 56.26498 | -3.63697 | 18827 ft | 392 kts | 63° |
| 2026-04-25 20:00 | 56.27982 | -3.59539 | 19491 ft | 395 kts | 51° |
| 2026-04-25 20:00 | 56.28556 | -3.58311 | 19704 ft | 396 kts | 48° |
| 2026-04-25 20:00 | 56.31958 | -3.52744 | 20782 ft | 402 kts | 37° |
| 2026-04-25 20:00 | 56.34210 | -3.49717 | 21419 ft | 406 kts | 35° |
| 2026-04-25 20:01 | 56.38834 | -3.43805 | 22667 ft | 414 kts | 34° |
| 2026-04-25 20:01 | 56.41194 | -3.40784 | 23282 ft | 418 kts | 35° |
| 2026-04-25 20:01 | 56.43573 | -3.37717 | 23882 ft | 422 kts | 35° |
| 2026-04-25 20:02 | 56.45978 | -3.34633 | 24391 ft | 426 kts | 34° |
| 2026-04-25 20:02 | 56.48429 | -3.31603 | 24902 ft | 429 kts | 34° |
| 2026-04-25 20:02 | 56.50916 | -3.28562 | 25383 ft | 433 kts | 34° |
| 2026-04-25 20:02 | 56.53422 | -3.25490 | 25886 ft | 436 kts | 34° |
| 2026-04-25 20:03 | 56.55944 | -3.22379 | 26336 ft | 440 kts | 34° |
| 2026-04-25 20:03 | 56.58481 | -3.19236 | 26791 ft | 443 kts | 35° |
| 2026-04-25 20:03 | 56.61018 | -3.16080 | 27278 ft | 446 kts | 35° |
| 2026-04-25 20:03 | 56.63586 | -3.12878 | 27712 ft | 450 kts | 35° |
| 2026-04-25 20:04 | 56.66161 | -3.09623 | 28151 ft | 453 kts | 38° |
| 2026-04-25 20:04 | 56.68464 | -3.05707 | 28567 ft | 454 kts | 51° |
| 2026-04-25 20:04 | 56.70265 | -3.01008 | 28966 ft | 454 kts | 63° |
| 2026-04-25 20:04 | 56.71533 | -2.95744 | 29342 ft | 455 kts | 71° |
| 2026-04-25 20:05 | 56.72669 | -2.90362 | 29734 ft | 458 kts | 71° |
| 2026-04-25 20:05 | 56.73824 | -2.84933 | 30121 ft | 461 kts | 71° |
| 2026-04-25 20:05 | 56.74986 | -2.79484 | 30484 ft | 464 kts | 70° |
| 2026-04-25 20:05 | 56.76160 | -2.73982 | 30861 ft | 465 kts | 70° |
| 2026-04-25 20:06 | 56.77319 | -2.68533 | 31226 ft | 467 kts | 71° |
| 2026-04-25 20:06 | 56.78491 | -2.63007 | 31618 ft | 468 kts | 71° |
| 2026-04-25 20:06 | 56.79649 | -2.57519 | 32086 ft | 466 kts | 71° |
| 2026-04-25 20:06 | 56.80818 | -2.51960 | 32577 ft | 464 kts | 71° |
| 2026-04-25 20:07 | 56.81986 | -2.46390 | 33074 ft | 462 kts | 71° |
| 2026-04-25 20:07 | 56.83114 | -2.40987 | 33536 ft | 461 kts | 71° |
| 2026-04-25 20:07 | 56.84227 | -2.35647 | 33981 ft | 459 kts | 71° |
| 2026-04-25 20:07 | 56.85359 | -2.30198 | 34411 ft | 458 kts | 71° |
| 2026-04-25 20:08 | 56.86486 | -2.24757 | 34761 ft | 457 kts | 71° |
| 2026-04-25 20:08 | 56.87608 | -2.19327 | 35093 ft | 456 kts | 71° |
| 2026-04-25 20:08 | 56.88729 | -2.13898 | 35401 ft | 456 kts | 71° |
| 2026-04-25 20:08 | 56.89669 | -2.08439 | 35704 ft | 454 kts | 77° |
| 2026-04-25 20:09 | 56.90379 | -2.02832 | 36012 ft | 453 kts | 79° |
| 2026-04-25 20:09 | 56.91042 | -1.97245 | 36293 ft | 453 kts | 79° |
| 2026-04-25 20:09 | 56.91711 | -1.91555 | 36582 ft | 452 kts | 79° |
| 2026-04-25 20:09 | 56.92365 | -1.85927 | 36869 ft | 451 kts | 79° |
| 2026-04-25 20:10 | 56.92794 | -1.82203 | 37057 ft | 451 kts | 79° |
| 2026-04-25 20:10 | 56.93649 | -1.74711 | 37424 ft | 450 kts | 79° |
| 2026-04-25 20:10 | 56.94284 | -1.69089 | 37685 ft | 450 kts | 80° |
| 2026-04-25 20:10 | 56.94918 | -1.63444 | 37929 ft | 450 kts | 80° |
| 2026-04-25 20:11 | 56.95726 | -1.58002 | 38149 ft | 451 kts | 69° |
| 2026-04-25 20:11 | 56.97043 | -1.52680 | 38384 ft | 451 kts | 65° |
| 2026-04-25 20:11 | 56.98395 | -1.47607 | 38621 ft | 451 kts | 65° |
| 2026-04-25 20:11 | 56.99769 | -1.42454 | 38834 ft | 451 kts | 65° |
| 2026-04-25 20:12 | 57.00702 | -1.38944 | 38984 ft | 450 kts | 65° |
| 2026-04-25 20:12 | 57.02511 | -1.32118 | 39192 ft | 450 kts | 65° |
| 2026-04-25 20:12 | 57.04339 | -1.25176 | 39314 ft | 451 kts | 65° |
| 2026-04-25 20:13 | 57.07941 | -1.11402 | 39316 ft | 449 kts | 65° |
| 2026-04-25 20:13 | 57.10180 | -1.02774 | 39318 ft | 449 kts | 65° |
| 2026-04-25 20:14 | 57.12807 | -0.92608 | 39315 ft | 448 kts | 65° |
| 2026-04-25 20:14 | 57.15512 | -0.82064 | 39312 ft | 448 kts | 65° |
| 2026-04-25 20:15 | 57.18163 | -0.71655 | 39316 ft | 448 kts | 65° |
| 2026-04-25 20:15 | 57.20707 | -0.61169 | 39314 ft | 448 kts | 71° |
| 2026-04-25 20:16 | 57.22693 | -0.50413 | 39316 ft | 448 kts | 71° |
| 2026-04-25 20:16 | 57.24714 | -0.39424 | 39316 ft | 448 kts | 71° |
| 2026-04-25 20:17 | 57.26718 | -0.28530 | 39315 ft | 448 kts | 71° |
| 2026-04-25 20:17 | 57.28710 | -0.17619 | 39313 ft | 448 kts | 71° |
| 2026-04-25 20:18 | 57.30689 | -0.06713 | 39314 ft | 447 kts | 71° |
| 2026-04-25 20:18 | 57.32660 | 0.04219 | 39312 ft | 447 kts | 71° |
| 2026-04-25 20:19 | 57.34603 | 0.15063 | 39313 ft | 447 kts | 71° |
| 2026-04-25 20:19 | 57.36543 | 0.25945 | 39310 ft | 447 kts | 71° |
| 2026-04-25 20:20 | 57.38479 | 0.36877 | 39313 ft | 447 kts | 71° |
| 2026-04-25 20:20 | 57.40401 | 0.47796 | 39311 ft | 446 kts | 71° |
| 2026-04-25 20:21 | 57.42352 | 0.58943 | 39309 ft | 446 kts | 71° |
| 2026-04-25 20:21 | 57.44251 | 0.69855 | 39309 ft | 446 kts | 71° |
| 2026-04-25 20:22 | 57.45837 | 0.79022 | 39309 ft | 445 kts | 71° |
| 2026-04-25 20:22 | 57.48025 | 0.91745 | 39305 ft | 445 kts | 71° |
| 2026-04-25 20:23 | 57.49902 | 1.02732 | 39303 ft | 445 kts | 71° |
| 2026-04-25 20:23 | 57.51769 | 1.13727 | 39306 ft | 445 kts | 71° |
| 2026-04-25 20:24 | 57.53626 | 1.24731 | 39305 ft | 445 kts | 71° |
| 2026-04-25 20:24 | 57.55473 | 1.35740 | 39299 ft | 445 kts | 71° |
| 2026-04-25 20:25 | 57.57311 | 1.46773 | 39300 ft | 445 kts | 71° |
| 2026-04-25 20:25 | 57.59122 | 1.57703 | 39300 ft | 445 kts | 71° |
| 2026-04-25 20:26 | 57.60943 | 1.68766 | 39299 ft | 445 kts | 71° |
| 2026-04-25 20:26 | 57.62749 | 1.79808 | 39298 ft | 445 kts | 71° |
| 2026-04-25 20:27 | 57.64539 | 1.90823 | 39297 ft | 445 kts | 71° |
| 2026-04-25 20:27 | 57.66338 | 2.01965 | 39297 ft | 445 kts | 70° |
| 2026-04-25 20:28 | 57.68113 | 2.13024 | 39294 ft | 445 kts | 70° |
| 2026-04-25 20:28 | 57.69887 | 2.24152 | 39278 ft | 445 kts | 70° |
| 2026-04-25 20:29 | 57.71636 | 2.35191 | 39278 ft | 445 kts | 70° |
| 2026-04-25 20:29 | 57.73373 | 2.46229 | 39276 ft | 445 kts | 70° |
| 2026-04-25 20:30 | 57.75123 | 2.57436 | 39281 ft | 445 kts | 70° |
| 2026-04-25 20:30 | 57.76850 | 2.68561 | 39275 ft | 445 kts | 70° |
| 2026-04-25 20:31 | 57.78572 | 2.79724 | 39278 ft | 446 kts | 70° |
| 2026-04-25 20:31 | 57.80280 | 2.90855 | 39276 ft | 446 kts | 70° |
| 2026-04-25 20:32 | 57.81991 | 3.02087 | 39281 ft | 446 kts | 70° |
| 2026-04-25 20:32 | 57.83684 | 3.13276 | 39273 ft | 446 kts | 70° |
| 2026-04-25 20:33 | 57.85368 | 3.24487 | 39275 ft | 446 kts | 70° |
| 2026-04-25 20:33 | 57.86772 | 3.33891 | 39269 ft | 446 kts | 70° |
| 2026-04-25 20:34 | 57.88709 | 3.46950 | 39263 ft | 446 kts | 70° |
| 2026-04-25 20:34 | 57.90373 | 3.58215 | 39259 ft | 447 kts | 70° |
| 2026-04-25 20:35 | 57.92205 | 3.69343 | 39261 ft | 444 kts | 65° |
| 2026-04-25 20:35 | 57.94326 | 3.80253 | 39258 ft | 444 kts | 65° |
| 2026-04-25 20:36 | 57.96409 | 3.91231 | 39253 ft | 445 kts | 65° |
| 2026-04-25 20:36 | 57.98447 | 4.02253 | 39255 ft | 446 kts | 65° |
| 2026-04-25 20:37 | 58.00463 | 4.13260 | 39256 ft | 446 kts | 65° |
| 2026-04-25 20:37 | 58.02479 | 4.24331 | 39252 ft | 447 kts | 65° |
| 2026-04-25 20:38 | 58.04493 | 4.35454 | 39253 ft | 447 kts | 65° |
| 2026-04-25 20:38 | 58.06496 | 4.46579 | 39244 ft | 447 kts | 65° |
| 2026-04-25 20:39 | 58.08486 | 4.57699 | 39249 ft | 447 kts | 65° |
| 2026-04-25 20:39 | 58.09817 | 4.65172 | 39244 ft | 447 kts | 65° |
| 2026-04-25 20:40 | 58.12447 | 4.80034 | 39236 ft | 448 kts | 65° |
| 2026-04-25 20:40 | 58.14412 | 4.91213 | 39231 ft | 448 kts | 65° |
| 2026-04-25 20:41 | 58.16366 | 5.02403 | 39228 ft | 448 kts | 65° |
| 2026-04-25 20:41 | 58.18312 | 5.13613 | 39211 ft | 448 kts | 65° |
| 2026-04-25 20:42 | 58.20237 | 5.24765 | 39208 ft | 447 kts | 65° |
| 2026-04-25 20:42 | 58.22164 | 5.36005 | 39206 ft | 447 kts | 65° |
| 2026-04-25 20:43 | 58.24082 | 5.47256 | 39198 ft | 447 kts | 65° |
| 2026-04-25 20:43 | 58.25985 | 5.58492 | 39191 ft | 447 kts | 65° |
| 2026-04-25 20:44 | 58.27882 | 5.69762 | 39189 ft | 448 kts | 65° |
| 2026-04-25 20:44 | 58.29761 | 5.80999 | 39181 ft | 448 kts | 65° |
| 2026-04-25 20:45 | 58.31638 | 5.92292 | 39175 ft | 448 kts | 64° |
| 2026-04-25 20:45 | 58.33507 | 6.03607 | 39167 ft | 448 kts | 64° |
| 2026-04-25 20:46 | 58.35356 | 6.14881 | 39164 ft | 448 kts | 64° |
| 2026-04-25 20:46 | 58.37225 | 6.26345 | 39161 ft | 448 kts | 64° |
| 2026-04-25 20:47 | 58.39054 | 6.37633 | 39156 ft | 449 kts | 64° |
| 2026-04-25 20:47 | 58.40885 | 6.49005 | 39150 ft | 448 kts | 64° |
| 2026-04-25 20:48 | 58.42788 | 6.60283 | 39149 ft | 446 kts | 62° |
| 2026-04-25 20:48 | 58.44875 | 6.71452 | 39151 ft | 446 kts | 61° |
| 2026-04-25 20:49 | 58.46938 | 6.82642 | 39152 ft | 446 kts | 62° |
| 2026-04-25 20:49 | 58.48968 | 6.93862 | 39148 ft | 446 kts | 62° |
| 2026-04-25 20:50 | 58.50986 | 7.05113 | 39149 ft | 447 kts | 62° |
| 2026-04-25 20:50 | 58.52980 | 7.16301 | 39145 ft | 447 kts | 62° |
| 2026-04-25 20:51 | 58.54653 | 7.25731 | 39151 ft | 447 kts | 62° |
| 2026-04-25 20:51 | 58.56965 | 7.38847 | 39153 ft | 447 kts | 62° |
| 2026-04-25 20:52 | 58.58290 | 7.46407 | 39149 ft | 447 kts | 62° |
| 2026-04-25 20:52 | 58.60583 | 7.59564 | 39151 ft | 447 kts | 62° |
| 2026-04-25 20:53 | 58.62546 | 7.70896 | 39146 ft | 447 kts | 62° |
| 2026-04-25 20:53 | 58.64500 | 7.82249 | 39147 ft | 447 kts | 62° |
| 2026-04-25 20:54 | 58.66443 | 7.93614 | 39144 ft | 447 kts | 62° |
| 2026-04-25 20:54 | 58.68375 | 8.04986 | 39135 ft | 448 kts | 62° |
| 2026-04-25 20:55 | 58.70277 | 8.16243 | 39139 ft | 448 kts | 62° |
| 2026-04-25 20:55 | 58.72193 | 8.27664 | 39129 ft | 448 kts | 62° |
| 2026-04-25 20:56 | 58.74101 | 8.39104 | 39129 ft | 448 kts | 62° |
| 2026-04-25 20:56 | 58.75994 | 8.50532 | 39124 ft | 448 kts | 62° |
| 2026-04-25 20:57 | 58.77878 | 8.61975 | 39129 ft | 448 kts | 62° |
| 2026-04-25 20:57 | 58.79752 | 8.73435 | 39122 ft | 447 kts | 62° |
| 2026-04-25 20:58 | 58.81611 | 8.84874 | 39116 ft | 447 kts | 62° |
| 2026-04-25 20:58 | 58.83464 | 8.96350 | 39112 ft | 447 kts | 62° |
| 2026-04-25 20:59 | 58.85322 | 9.07802 | 39111 ft | 446 kts | 60° |
| 2026-04-25 20:59 | 58.87371 | 9.19060 | 39103 ft | 443 kts | 59° |
| 2026-04-25 21:00 | 58.89098 | 9.28406 | 39105 ft | 444 kts | 59° |
| 2026-04-25 21:01 | 58.92475 | 9.47157 | 39107 ft | 444 kts | 60° |
| 2026-04-25 21:01 | 58.94484 | 9.58455 | 39101 ft | 443 kts | 60° |
| 2026-04-25 21:02 | 58.96481 | 9.69758 | 39090 ft | 443 kts | 60° |
| 2026-04-25 21:02 | 58.98469 | 9.81078 | 39088 ft | 443 kts | 60° |
| 2026-04-25 21:03 | 59.00443 | 9.92380 | 39085 ft | 442 kts | 60° |
| 2026-04-25 21:03 | 59.02406 | 10.03691 | 39075 ft | 442 kts | 60° |
| 2026-04-25 21:04 | 59.04358 | 10.15007 | 39068 ft | 442 kts | 61° |
| 2026-04-25 21:04 | 59.06302 | 10.26349 | 39067 ft | 442 kts | 61° |
| 2026-04-25 21:05 | 59.08239 | 10.37709 | 39077 ft | 444 kts | 61° |
| 2026-04-25 21:05 | 59.10171 | 10.49129 | 39077 ft | 444 kts | 62° |
| 2026-04-25 21:06 | 59.12092 | 10.60555 | 39201 ft | 444 kts | 62° |
| 2026-04-25 21:06 | 59.13992 | 10.71923 | 39232 ft | 444 kts | 62° |
| 2026-04-25 21:07 | 59.15894 | 10.83383 | 39255 ft | 445 kts | 62° |
| 2026-04-25 21:07 | 59.17788 | 10.94863 | 39250 ft | 445 kts | 63° |
| 2026-04-25 21:08 | 59.19678 | 11.06398 | 39222 ft | 446 kts | 63° |
| 2026-04-25 21:08 | 59.21560 | 11.17951 | 39186 ft | 447 kts | 63° |
| 2026-04-25 21:09 | 59.24364 | 11.35321 | 39114 ft | 448 kts | 63° |
| 2026-04-25 21:09 | 59.26226 | 11.46941 | 39064 ft | 448 kts | 63° |
| 2026-04-25 21:10 | 59.28078 | 11.58584 | 39039 ft | 449 kts | 64° |
| 2026-04-25 21:10 | 59.29924 | 11.70269 | 39039 ft | 449 kts | 64° |
| 2026-04-25 21:11 | 59.31762 | 11.81993 | 39032 ft | 451 kts | 65° |
| 2026-04-25 21:11 | 59.33462 | 11.93770 | 39026 ft | 451 kts | 65° |
| 2026-04-25 21:12 | 59.35230 | 12.05559 | 39025 ft | 451 kts | 65° |
| 2026-04-25 21:12 | 59.36707 | 12.15461 | 39020 ft | 452 kts | 65° |
| 2026-04-25 21:13 | 59.38737 | 12.29219 | 39017 ft | 452 kts | 65° |
| 2026-04-25 21:13 | 59.40472 | 12.41107 | 39008 ft | 453 kts | 65° |
| 2026-04-25 21:14 | 59.42188 | 12.52996 | 39001 ft | 453 kts | 66° |
| 2026-04-25 21:14 | 59.43895 | 12.64922 | 39001 ft | 454 kts | 66° |
| 2026-04-25 21:15 | 59.45584 | 12.76813 | 38988 ft | 454 kts | 66° |
| 2026-04-25 21:15 | 59.47274 | 12.88799 | 38979 ft | 454 kts | 66° |
| 2026-04-25 21:16 | 59.48957 | 13.00825 | 38967 ft | 455 kts | 66° |
| 2026-04-25 21:16 | 59.50617 | 13.12775 | 38963 ft | 456 kts | 66° |
| 2026-04-25 21:17 | 59.52279 | 13.24831 | 38960 ft | 456 kts | 67° |
| 2026-04-25 21:17 | 59.53933 | 13.36919 | 38960 ft | 457 kts | 67° |
| 2026-04-25 21:18 | 59.55575 | 13.49022 | 38967 ft | 458 kts | 67° |
| 2026-04-25 21:18 | 59.57214 | 13.61186 | 38976 ft | 458 kts | 67° |
| 2026-04-25 21:19 | 59.58840 | 13.73360 | 38977 ft | 459 kts | 68° |
| 2026-04-25 21:19 | 59.60456 | 13.85550 | 38969 ft | 459 kts | 68° |
| 2026-04-25 21:20 | 59.61794 | 13.95721 | 38972 ft | 460 kts | 68° |
| 2026-04-25 21:20 | 59.63652 | 14.09948 | 38962 ft | 460 kts | 68° |
| 2026-04-25 21:21 | 59.65239 | 14.22212 | 38955 ft | 460 kts | 68° |
| 2026-04-25 21:21 | 59.66815 | 14.34492 | 38949 ft | 461 kts | 68° |
| 2026-04-25 21:22 | 59.68380 | 14.46790 | 38944 ft | 461 kts | 69° |
| 2026-04-25 21:22 | 59.69936 | 14.59121 | 38940 ft | 461 kts | 69° |
| 2026-04-25 21:23 | 59.71479 | 14.71447 | 38935 ft | 462 kts | 69° |
| 2026-04-25 21:23 | 59.73016 | 14.83833 | 38931 ft | 462 kts | 69° |
| 2026-04-25 21:24 | 59.74541 | 14.96224 | 38924 ft | 462 kts | 69° |
| 2026-04-25 21:24 | 59.76052 | 15.08607 | 38913 ft | 462 kts | 70° |
| 2026-04-25 21:25 | 59.77543 | 15.20932 | 38913 ft | 463 kts | 70° |
| 2026-04-25 21:25 | 59.79034 | 15.33366 | 38903 ft | 463 kts | 70° |
| 2026-04-25 21:26 | 59.80513 | 15.45811 | 38898 ft | 463 kts | 70° |
| 2026-04-25 21:26 | 59.81982 | 15.58272 | 38894 ft | 463 kts | 70° |
| 2026-04-25 21:27 | 59.83438 | 15.70741 | 38888 ft | 463 kts | 70° |
| 2026-04-25 21:27 | 59.84884 | 15.83235 | 38882 ft | 464 kts | 71° |
| 2026-04-25 21:28 | 59.86319 | 15.95751 | 38875 ft | 464 kts | 71° |
| 2026-04-25 21:28 | 59.87744 | 16.08288 | 38871 ft | 464 kts | 71° |
| 2026-04-25 21:29 | 59.89158 | 16.20851 | 38871 ft | 465 kts | 71° |
| 2026-04-25 21:29 | 59.90565 | 16.33464 | 38862 ft | 465 kts | 72° |
| 2026-04-25 21:30 | 59.91950 | 16.46000 | 38854 ft | 466 kts | 72° |
| 2026-04-25 21:30 | 59.93109 | 16.56581 | 38849 ft | 466 kts | 72° |
| 2026-04-25 21:31 | 59.94706 | 16.71302 | 38844 ft | 467 kts | 72° |
| 2026-04-25 21:31 | 59.96010 | 16.84017 | 38845 ft | 468 kts | 74° |
| 2026-04-25 21:32 | 59.97199 | 16.96829 | 38844 ft | 469 kts | 74° |
| 2026-04-25 21:32 | 59.98399 | 17.09619 | 38838 ft | 469 kts | 74° |
| 2026-04-25 21:33 | 59.99602 | 17.22432 | 38831 ft | 469 kts | 75° |
| 2026-04-25 21:33 | 60.00780 | 17.35174 | 38826 ft | 469 kts | 75° |
| 2026-04-25 21:34 | 60.01950 | 17.48015 | 38822 ft | 469 kts | 75° |
| 2026-04-25 21:34 | 60.03105 | 17.60829 | 38815 ft | 470 kts | 75° |
| 2026-04-25 21:35 | 60.04256 | 17.73749 | 38811 ft | 470 kts | 76° |
| 2026-04-25 21:35 | 60.05388 | 17.86614 | 38803 ft | 469 kts | 76° |
| 2026-04-25 21:36 | 60.06509 | 17.99500 | 38799 ft | 469 kts | 76° |
| 2026-04-25 21:36 | 60.07431 | 18.10218 | 38794 ft | 469 kts | 76° |
| 2026-04-25 21:37 | 60.08344 | 18.20928 | 38783 ft | 469 kts | 76° |
| 2026-04-25 21:37 | 60.09607 | 18.35937 | 38784 ft | 469 kts | 76° |
| 2026-04-25 21:38 | 60.10678 | 18.48832 | 38774 ft | 469 kts | 77° |
| 2026-04-25 21:38 | 60.11740 | 18.61769 | 38773 ft | 469 kts | 77° |
| 2026-04-25 21:39 | 60.12787 | 18.74699 | 38767 ft | 469 kts | 77° |
| 2026-04-25 21:39 | 60.13822 | 18.87644 | 38768 ft | 470 kts | 77° |
| 2026-04-25 21:40 | 60.14845 | 19.00596 | 38762 ft | 470 kts | 77° |
| 2026-04-25 21:40 | 60.15854 | 19.13536 | 38762 ft | 470 kts | 77° |
| 2026-04-25 21:41 | 60.16856 | 19.26574 | 38748 ft | 471 kts | 78° |
| 2026-04-25 21:41 | 60.17844 | 19.39587 | 38735 ft | 472 kts | 78° |
| 2026-04-25 21:42 | 60.18814 | 19.52551 | 38729 ft | 472 kts | 78° |
| 2026-04-25 21:42 | 60.19779 | 19.65616 | 38724 ft | 473 kts | 78° |
| 2026-04-25 21:43 | 60.20728 | 19.78647 | 38721 ft | 473 kts | 78° |
| 2026-04-25 21:43 | 60.21620 | 19.91773 | 38717 ft | 475 kts | 84° |
| 2026-04-25 21:44 | 60.21650 | 20.05128 | 38722 ft | 477 kts | 87° |
| 2026-04-25 21:45 | 60.21614 | 20.25183 | 38727 ft | 478 kts | 87° |
| 2026-04-25 21:45 | 60.21583 | 20.38541 | 38430 ft | 478 kts | 87° |
| 2026-04-25 21:45 | 60.21561 | 20.45149 | 38176 ft | 477 kts | 87° |
| 2026-04-25 21:46 | 60.21535 | 20.51803 | 37916 ft | 477 kts | 88° |
| 2026-04-25 21:46 | 60.21506 | 20.58510 | 37655 ft | 478 kts | 88° |
| 2026-04-25 21:46 | 60.21472 | 20.65192 | 37396 ft | 478 kts | 88° |
| 2026-04-25 21:46 | 60.21436 | 20.71872 | 37142 ft | 478 kts | 88° |
| 2026-04-25 21:47 | 60.21396 | 20.78564 | 36887 ft | 478 kts | 88° |
| 2026-04-25 21:47 | 60.21353 | 20.85244 | 36640 ft | 478 kts | 88° |
| 2026-04-25 21:47 | 60.21307 | 20.91937 | 36396 ft | 478 kts | 88° |
| 2026-04-25 21:47 | 60.21257 | 20.98616 | 36151 ft | 478 kts | 88° |
| 2026-04-25 21:48 | 60.21204 | 21.05267 | 35911 ft | 478 kts | 88° |
| 2026-04-25 21:48 | 60.21147 | 21.12001 | 35681 ft | 478 kts | 88° |
| 2026-04-25 21:48 | 60.21089 | 21.18526 | 35442 ft | 479 kts | 88° |
| 2026-04-25 21:48 | 60.21026 | 21.25232 | 35211 ft | 479 kts | 88° |
| 2026-04-25 21:49 | 60.20959 | 21.31925 | 34981 ft | 479 kts | 88° |
| 2026-04-25 21:49 | 60.20889 | 21.38621 | 34752 ft | 479 kts | 88° |
| 2026-04-25 21:49 | 60.20816 | 21.45326 | 34517 ft | 479 kts | 88° |
| 2026-04-25 21:49 | 60.20740 | 21.52014 | 34297 ft | 479 kts | 89° |
| 2026-04-25 21:50 | 60.20660 | 21.58722 | 34074 ft | 479 kts | 89° |
| 2026-04-25 21:50 | 60.20576 | 21.65431 | 33854 ft | 479 kts | 89° |
| 2026-04-25 21:50 | 60.20489 | 21.72141 | 33622 ft | 479 kts | 89° |
| 2026-04-25 21:50 | 60.20430 | 21.76575 | 33453 ft | 479 kts | 89° |
| 2026-04-25 21:51 | 60.20307 | 21.85450 | 33102 ft | 479 kts | 89° |
| 2026-04-25 21:51 | 60.20210 | 21.92139 | 32844 ft | 479 kts | 89° |
| 2026-04-25 21:51 | 60.20110 | 21.98826 | 32580 ft | 479 kts | 89° |
| 2026-04-25 21:51 | 60.20007 | 22.05494 | 32326 ft | 479 kts | 89° |
| 2026-04-25 21:52 | 60.19899 | 22.12193 | 32068 ft | 478 kts | 89° |
| 2026-04-25 21:52 | 60.19789 | 22.18893 | 31840 ft | 478 kts | 90° |
| 2026-04-25 21:52 | 60.19675 | 22.25584 | 31484 ft | 479 kts | 90° |
| 2026-04-25 21:52 | 60.19559 | 22.32266 | 30997 ft | 477 kts | 90° |
| 2026-04-25 21:53 | 60.19438 | 22.38927 | 30519 ft | 476 kts | 90° |
| 2026-04-25 21:53 | 60.19315 | 22.45557 | 30048 ft | 475 kts | 90° |
| 2026-04-25 21:53 | 60.19189 | 22.52176 | 29559 ft | 471 kts | 90° |
| 2026-04-25 21:53 | 60.19061 | 22.58740 | 28984 ft | 466 kts | 90° |
| 2026-04-25 21:54 | 60.18931 | 22.65215 | 28413 ft | 460 kts | 90° |
| 2026-04-25 21:54 | 60.18799 | 22.71606 | 27857 ft | 454 kts | 90° |
| 2026-04-25 21:54 | 60.18669 | 22.77815 | 27308 ft | 448 kts | 90° |
| 2026-04-25 21:54 | 60.18535 | 22.84034 | 26785 ft | 443 kts | 90° |
| 2026-04-25 21:55 | 60.18401 | 22.90198 | 26252 ft | 439 kts | 90° |
| 2026-04-25 21:55 | 60.18264 | 22.96304 | 25733 ft | 434 kts | 90° |
| 2026-04-25 21:55 | 60.18125 | 23.02321 | 25226 ft | 430 kts | 90° |
| 2026-04-25 21:55 | 60.17985 | 23.08298 | 24730 ft | 425 kts | 90° |
| 2026-04-25 21:56 | 60.17845 | 23.14198 | 24238 ft | 420 kts | 90° |
| 2026-04-25 21:56 | 60.17752 | 23.18133 | 23910 ft | 416 kts | 90° |
| 2026-04-25 21:56 | 60.17566 | 23.25752 | 23282 ft | 409 kts | 90° |
| 2026-04-25 21:56 | 60.17423 | 23.31429 | 22730 ft | 405 kts | 90° |
| 2026-04-25 21:57 | 60.17279 | 23.37046 | 22144 ft | 402 kts | 90° |
| 2026-04-25 21:57 | 60.17132 | 23.42660 | 21555 ft | 398 kts | 90° |
| 2026-04-25 21:57 | 60.16986 | 23.48180 | 20648 ft | 393 kts | 90° |
| 2026-04-25 21:57 | 60.16841 | 23.53655 | 19591 ft | 392 kts | 90° |
| 2026-04-25 21:58 | 60.16694 | 23.59099 | 18562 ft | 390 kts | 90° |
| 2026-04-25 21:58 | 60.16545 | 23.64544 | 17398 ft | 389 kts | 90° |
| 2026-04-25 21:58 | 60.16396 | 23.69898 | 16024 ft | 391 kts | 90° |
| 2026-04-25 21:58 | 60.16240 | 23.75421 | 14657 ft | 392 kts | 90° |
| 2026-04-25 21:59 | 60.16082 | 23.80803 | 13396 ft | 390 kts | 90° |
| 2026-04-25 21:59 | 60.15921 | 23.86229 | 12008 ft | 388 kts | 89° |
| 2026-04-25 21:59 | 60.15760 | 23.91618 | 10807 ft | 383 kts | 89° |
| 2026-04-25 22:00 | 60.15443 | 24.01771 | 9716 ft | 345 kts | 89° |
| 2026-04-25 22:00 | 60.15295 | 24.06498 | 9012 ft | 334 kts | 88° |
| 2026-04-25 22:00 | 60.15154 | 24.11065 | 8219 ft | 327 kts | 88° |
| 2026-04-25 22:00 | 60.15012 | 24.15596 | 7435 ft | 321 kts | 88° |
| 2026-04-25 22:01 | 60.14871 | 24.20015 | 6821 ft | 311 kts | 87° |
| 2026-04-25 22:01 | 60.14732 | 24.24199 | 6582 ft | 290 kts | 87° |
| 2026-04-25 22:01 | 60.14599 | 24.28086 | 6497 ft | 267 kts | 86° |
| 2026-04-25 22:01 | 60.14518 | 24.30544 | 6492 ft | 270 kts | 86° |
| 2026-04-25 22:02 | 60.14364 | 24.35555 | 6484 ft | 268 kts | 86° |
| 2026-04-25 22:02 | 60.14247 | 24.39292 | 6478 ft | 268 kts | 86° |
| 2026-04-25 22:02 | 60.14125 | 24.43020 | 6446 ft | 268 kts | 86° |
| 2026-04-25 22:02 | 60.14001 | 24.46747 | 6315 ft | 267 kts | 86° |
| 2026-04-25 22:03 | 60.13875 | 24.50448 | 6125 ft | 267 kts | 86° |
| 2026-04-25 22:03 | 60.13747 | 24.54179 | 5632 ft | 268 kts | 86° |
| 2026-04-25 22:03 | 60.13618 | 24.57888 | 4975 ft | 273 kts | 86° |
| 2026-04-25 22:03 | 60.13486 | 24.61735 | 4314 ft | 278 kts | 85° |
| 2026-04-25 22:04 | 60.13347 | 24.65636 | 3638 ft | 283 kts | 85° |
| 2026-04-25 22:04 | 60.13205 | 24.69602 | 2962 ft | 286 kts | 84° |
| 2026-04-25 22:04 | 60.13056 | 24.73526 | 2478 ft | 276 kts | 84° |
| 2026-04-25 22:04 | 60.12912 | 24.77217 | 2335 ft | 255 kts | 83° |
| 2026-04-25 22:05 | 60.12775 | 24.80598 | 2307 ft | 231 kts | 82° |
| 2026-04-25 22:05 | 60.12657 | 24.83761 | 2314 ft | 228 kts | 81° |
| 2026-04-25 22:05 | 60.12539 | 24.86901 | 2309 ft | 226 kts | 82° |
| 2026-04-25 22:05 | 60.12424 | 24.89964 | 2302 ft | 213 kts | 83° |
| 2026-04-25 22:06 | 60.12197 | 24.92826 | 2322 ft | 200 kts | 87° |
| 2026-04-25 22:06 | 60.11931 | 24.95400 | 2303 ft | 186 kts | 87° |
| 2026-04-25 22:06 | 60.11660 | 24.98008 | 2293 ft | 190 kts | 87° |
| 2026-04-25 22:06 | 60.11426 | 25.00587 | 2300 ft | 186 kts | 81° |
| 2026-04-25 22:07 | 60.11322 | 25.03149 | 2302 ft | 184 kts | 79° |
| 2026-04-25 22:07 | 60.11260 | 25.04847 | 2300 ft | 184 kts | 79° |
| 2026-04-25 22:07 | 60.11136 | 25.08251 | 2296 ft | 183 kts | 79° |
| 2026-04-25 22:07 | 60.11049 | 25.10796 | 2297 ft | 182 kts | 77° |
| 2026-04-25 22:08 | 60.11345 | 25.13022 | 2301 ft | 158 kts | 47° |
| 2026-04-25 22:08 | 60.11909 | 25.14854 | 2298 ft | 156 kts | 44° |
| 2026-04-25 22:08 | 60.12593 | 25.16395 | 2290 ft | 140 kts | 19° |
| 2026-04-25 22:08 | 60.13496 | 25.16395 | 2296 ft | 130 kts | 338° |
| 2026-04-25 22:09 | 60.14256 | 25.15401 | 2299 ft | 131 kts | 333° |
| 2026-04-25 22:09 | 60.15008 | 25.14370 | 2299 ft | 131 kts | 333° |
| 2026-04-25 22:09 | 60.15757 | 25.13341 | 2289 ft | 130 kts | 333° |
| 2026-04-25 22:09 | 60.16503 | 25.12326 | 2300 ft | 132 kts | 333° |
| 2026-04-25 22:10 | 60.17257 | 25.11297 | 2298 ft | 131 kts | 333° |
| 2026-04-25 22:10 | 60.17994 | 25.10281 | 2302 ft | 120 kts | 333° |
| 2026-04-25 22:10 | 60.18589 | 25.09411 | 2286 ft | 93 kts | 333° |
| 2026-04-25 22:10 | 60.19102 | 25.08633 | 2304 ft | 94 kts | 333° |
| 2026-04-25 22:11 | 60.19613 | 25.07871 | 2225 ft | 91 kts | 335° |
| 2026-04-25 22:11 | 60.20144 | 25.07205 | 2099 ft | 89 kts | 338° |
| 2026-04-25 22:11 | 60.20704 | 25.06699 | 1953 ft | 88 kts | 345° |
| 2026-04-25 22:11 | 60.21297 | 25.06434 | 1787 ft | 89 kts | 349° |
| 2026-04-25 22:12 | 60.21919 | 25.06179 | 1490 ft | 88 kts | 347° |
| 2026-04-25 22:12 | 60.22523 | 25.05828 | 1446 ft | 92 kts | 342° |
| 2026-04-25 22:12 | 60.23126 | 25.05412 | 1401 ft | 92 kts | 342° |
| 2026-04-25 22:12 | 60.23331 | 25.05275 | 1384 ft | 93 kts | 342° |
| 2026-04-25 22:13 | 60.24347 | 25.04534 | 1331 ft | 94 kts | 341° |
| 2026-04-25 22:13 | 60.24963 | 25.04145 | 1354 ft | 94 kts | 342° |
| 2026-04-25 22:13 | 60.25575 | 25.03727 | 1396 ft | 92 kts | 341° |
| 2026-04-25 22:13 | 60.26184 | 25.03241 | 1388 ft | 95 kts | 341° |
| 2026-04-25 22:14 | 60.26822 | 25.02768 | 1206 ft | 97 kts | 339° |
| 2026-04-25 22:14 | 60.27446 | 25.02210 | 1019 ft | 101 kts | 332° |
| 2026-04-25 22:14 | 60.28057 | 25.01525 | 920 ft | 101 kts | 334° |
| 2026-04-25 22:14 | 60.28697 | 25.00894 | 773 ft | 105 kts | 334° |
| 2026-04-25 22:15 | 60.29346 | 25.00227 | 602 ft | 104 kts | 333° |
| 2026-04-25 22:15 | 60.29993 | 24.99567 | 386 ft | 104 kts | 333° |
| 2026-04-25 22:15 | 60.30620 | 24.98919 | 230 ft | 105 kts | 332° |
| 2026-04-25 22:16 | 60.31570 | 24.97948 | 159 ft | 28 kts | 333° |
| 2026-04-25 22:16 | 60.31646 | 24.97860 | 159 ft | 3 kts | 327° |
| 2026-04-25 22:16 | 60.31679 | 24.97667 | 160 ft | 15 kts | 239° |
| 2026-04-25 22:16 | 60.31658 | 24.97579 | 160 ft | 0 kts | 246° |
| 2026-04-25 22:18 | 60.31665 | 24.97520 | 160 ft | 9 kts | 308° |
| 2026-04-25 22:18 | 60.31704 | 24.97467 | 161 ft | 6 kts | 333° |
| 2026-04-25 22:19 | 60.31747 | 24.97423 | 161 ft | 9 kts | 333° |
| 2026-04-25 22:19 | 60.31802 | 24.97365 | 161 ft | 16 kts | 333° |
| 2026-04-25 22:19 | 60.31979 | 24.97186 | 162 ft | 26 kts | 333° |
| 2026-04-25 22:19 | 60.32106 | 24.97051 | 162 ft | 15 kts | 329° |
| 2026-04-25 22:20 | 60.32129 | 24.96936 | 163 ft | 16 kts | 252° |
| 2026-04-25 22:20 | 60.32022 | 24.96708 | 163 ft | 29 kts | 226° |
| 2026-04-25 22:20 | 60.31901 | 24.96431 | 164 ft | 7 kts | 228° |
| 2026-04-25 22:20 | 60.31865 | 24.96269 | 164 ft | 10 kts | 294° |
| 2026-04-25 22:21 | 60.31864 | 24.96186 | 164 ft | 10 kts | 243° |
| 2026-04-25 22:21 | 60.31776 | 24.96019 | 163 ft | 24 kts | 232° |
| 2026-04-25 22:21 | 60.31662 | 24.95754 | 163 ft | 22 kts | 227° |
| 2026-04-25 22:21 | 60.31530 | 24.95528 | 163 ft | 16 kts | 234° |
| 2026-04-25 22:22 | 60.31439 | 24.95333 | 163 ft | 22 kts | 228° |
| 2026-04-25 22:22 | 60.31332 | 24.95202 | 163 ft | 15 kts | 156° |
| 2026-04-25 22:22 | 60.31276 | 24.95318 | 163 ft | 14 kts | 135° |
| 2026-04-25 22:22 | 60.31182 | 24.95492 | 163 ft | 23 kts | 137° |
| 2026-04-25 22:23 | 60.31137 | 24.95614 | 163 ft | 4 kts | 97° |
| 2026-04-25 22:23 | 60.31215 | 24.95706 | 163 ft | 17 kts | 47° |
| 2026-04-25 22:23 | 60.31244 | 24.95919 | 163 ft | 16 kts | 97° |
| 2026-04-25 22:23 | 60.31258 | 24.96053 | 163 ft | 7 kts | 55° |
| 2026-04-25 22:24 | 60.31297 | 24.96148 | 163 ft | 10 kts | 58° |
| 2026-04-25 22:24 | 60.31316 | 24.96287 | 163 ft | 10 kts | 64° |
| 2026-04-25 22:24 | 60.31348 | 24.96367 | 163 ft | 0 kts | 49° |